createdAt,value
2023-02-18T00:02:16.591Z,49.48
2023-02-18T00:05:19.807Z,49.51
2023-02-18T00:08:23.040Z,49.55
2023-02-18T00:11:26.051Z,49.45
2023-02-18T00:14:30.411Z,49.45
2023-02-18T00:17:33.591Z,49.51
2023-02-18T00:20:36.915Z,49.47
2023-02-18T00:23:42.485Z,49.51
2023-02-18T00:26:47.473Z,49.44
2023-02-18T00:29:51.710Z,49.45
2023-02-18T00:32:54.544Z,49.37
2023-02-18T00:36:03.738Z,49.43
2023-02-18T00:39:09.288Z,49.32
2023-02-18T00:42:12.260Z,49.35
2023-02-18T00:45:16.686Z,49.31
2023-02-18T00:48:20.309Z,49.35
2023-02-18T00:51:25.280Z,49.26
2023-02-18T00:54:28.390Z,49.32
2023-02-18T00:57:31.247Z,49.37
2023-02-18T01:00:35.869Z,49.41
2023-02-18T01:03:40.631Z,49.30
2023-02-18T01:06:44.175Z,49.41
2023-02-18T01:09:46.986Z,49.31
2023-02-18T01:12:50.183Z,49.20
2023-02-18T01:15:54.826Z,49.34
2023-02-18T01:18:57.778Z,49.25
2023-02-18T01:22:02.303Z,49.26
2023-02-18T01:25:05.393Z,49.16
2023-02-18T01:28:09.884Z,49.25
2023-02-18T01:31:14.965Z,49.22
2023-02-18T01:34:18.098Z,49.13
2023-02-18T01:37:20.985Z,49.27
2023-02-18T01:40:25.760Z,49.20
2023-02-18T01:43:29.339Z,49.26
2023-02-18T01:46:33.520Z,49.20
2023-02-18T01:49:40.171Z,49.11
2023-02-18T01:52:43.039Z,49.10
2023-02-18T01:55:47.396Z,49.10
2023-02-18T01:58:51.302Z,49.00
2023-02-18T02:01:56.951Z,48.97
2023-02-18T02:05:00.032Z,49.14
2023-02-18T02:08:04.298Z,49.06
2023-02-18T02:11:20.144Z,49.07
2023-02-18T02:14:36.094Z,49.06
2023-02-18T02:17:51.315Z,49.03
2023-02-18T02:21:20.993Z,48.86
2023-02-18T02:25:03.724Z,48.96
2023-02-18T02:28:43.470Z,49.03
2023-02-18T02:32:16.095Z,48.93
2023-02-18T02:35:24.922Z,49.14
2023-02-18T02:38:35.063Z,48.91
2023-02-18T02:41:47.716Z,48.84
2023-02-18T02:44:57.136Z,48.88
2023-02-18T02:48:10.304Z,48.71
2023-02-18T02:51:19.850Z,48.57
2023-02-18T02:54:25.386Z,48.58
2023-02-18T02:57:48.309Z,48.58
2023-02-18T03:01:14.769Z,48.69
2023-02-18T03:04:41.615Z,48.69
2023-02-18T03:08:05.584Z,48.74
2023-02-18T03:11:12.221Z,48.63
2023-02-18T03:14:22.420Z,48.68
2023-02-18T03:17:28.873Z,48.54
2023-02-18T03:20:37.655Z,48.64
2023-02-18T03:23:48.895Z,48.58
2023-02-18T03:26:56.016Z,48.45
2023-02-18T03:30:03.903Z,48.31
2023-02-18T03:33:10.580Z,48.34
2023-02-18T03:36:14.399Z,48.29
2023-02-18T03:39:21.183Z,48.29
2023-02-18T03:42:27.834Z,48.08
2023-02-18T03:45:30.916Z,48.08
2023-02-18T03:48:34.408Z,47.92
2023-02-18T03:51:37.255Z,47.91
2023-02-18T03:54:41.439Z,47.78
2023-02-18T03:57:44.774Z,47.66
2023-02-18T04:00:47.548Z,47.77
2023-02-18T04:03:50.399Z,47.71
2023-02-18T04:06:53.263Z,47.68
2023-02-18T04:09:57.483Z,47.84
2023-02-18T04:13:00.698Z,47.65
2023-02-18T04:16:03.522Z,47.77
2023-02-18T04:19:06.898Z,47.79
2023-02-18T04:22:09.746Z,47.77
2023-02-18T04:25:14.030Z,47.83
2023-02-18T04:28:17.947Z,47.83
2023-02-18T04:31:21.346Z,47.96
2023-02-18T04:34:24.351Z,47.96
2023-02-18T04:37:27.279Z,47.88
2023-02-18T04:40:31.475Z,48.08
2023-02-18T04:43:34.336Z,47.95
2023-02-18T04:46:37.187Z,48.01
2023-02-18T04:49:40.107Z,48.04
2023-02-18T04:52:42.951Z,47.96
2023-02-18T04:55:50.875Z,48.03
2023-02-18T04:58:53.815Z,48.15
2023-02-18T05:01:56.695Z,48.11
2023-02-18T05:04:59.836Z,48.00
2023-02-18T05:08:02.936Z,48.16
2023-02-18T05:11:08.669Z,48.15
2023-02-18T05:14:12.299Z,48.18
2023-02-18T05:17:15.123Z,48.01
2023-02-18T05:20:18.296Z,48.05
2023-02-18T05:23:21.473Z,48.12
2023-02-18T05:26:25.829Z,48.05
2023-02-18T05:29:28.756Z,48.04
2023-02-18T05:32:31.630Z,48.05
2023-02-18T05:35:34.652Z,48.08
2023-02-18T05:38:37.583Z,47.96
2023-02-18T05:41:41.752Z,47.99
2023-02-18T05:44:44.638Z,47.94
2023-02-18T05:47:47.587Z,48.06
2023-02-18T05:50:53.923Z,48.05
2023-02-18T05:53:56.814Z,47.94
2023-02-18T05:57:01.176Z,47.84
2023-02-18T06:00:05.231Z,47.94
2023-02-18T06:03:08.038Z,48.00
2023-02-18T06:06:11.372Z,47.90
2023-02-18T06:09:14.702Z,47.99
2023-02-18T06:12:18.932Z,47.99
2023-02-18T06:15:21.906Z,47.92
2023-02-18T06:18:25.280Z,48.00
2023-02-18T06:21:28.399Z,47.95
2023-02-18T06:24:31.331Z,47.98
2023-02-18T06:27:35.524Z,47.95
2023-02-18T06:30:38.874Z,48.00
2023-02-18T06:33:41.834Z,48.04
2023-02-18T06:36:44.668Z,47.99
2023-02-18T06:39:47.525Z,48.03
2023-02-18T06:42:51.771Z,48.23
2023-02-18T06:45:54.694Z,48.36
2023-02-18T06:48:57.571Z,48.52
2023-02-18T06:52:00.533Z,48.65
2023-02-18T06:55:03.419Z,48.74
2023-02-18T06:58:07.701Z,48.72
2023-02-18T07:01:10.624Z,48.71
2023-02-18T07:04:13.549Z,48.77
2023-02-18T07:07:16.498Z,48.74
2023-02-18T07:10:19.852Z,48.69
2023-02-18T07:13:24.140Z,48.81
2023-02-18T07:16:27.061Z,48.65
2023-02-18T07:19:30.014Z,48.80
2023-02-18T07:22:33.169Z,48.69
2023-02-18T07:25:36.041Z,48.71
2023-02-18T07:28:41.264Z,48.63
2023-02-18T07:31:44.272Z,48.68
2023-02-18T07:34:47.261Z,48.64
2023-02-18T07:37:51.474Z,48.57
2023-02-18T07:40:55.473Z,48.69
2023-02-18T07:44:00.217Z,48.58
2023-02-18T07:47:03.251Z,48.71
2023-02-18T07:50:07.607Z,47.91
2023-02-18T07:53:12.479Z,43.88
2023-02-18T07:56:15.631Z,43.96
2023-02-18T07:59:20.028Z,44.24
2023-02-18T08:02:24.901Z,44.72
2023-02-18T08:05:27.908Z,44.96
2023-02-18T08:08:32.289Z,45.08
2023-02-18T08:11:36.088Z,45.15
2023-02-18T08:14:40.812Z,44.95
2023-02-18T08:17:43.658Z,44.91
2023-02-18T08:20:47.812Z,45.22
2023-02-18T08:23:50.818Z,45.11
2023-02-18T08:27:00.375Z,45.14
2023-02-18T08:30:06.638Z,45.06
2023-02-18T08:33:09.653Z,45.08
2023-02-18T08:36:12.537Z,45.19
2023-02-18T08:39:15.419Z,45.15
2023-02-18T08:42:18.366Z,45.05
2023-02-18T08:45:23.723Z,45.21
2023-02-18T08:48:27.376Z,45.22
2023-02-18T08:51:31.445Z,45.31
2023-02-18T08:54:34.400Z,45.36
2023-02-18T08:57:37.326Z,45.52
2023-02-18T09:00:43.059Z,45.72
2023-02-18T09:03:46.328Z,45.62
2023-02-18T09:06:50.078Z,45.70
2023-02-18T09:09:53.484Z,45.77
2023-02-18T09:12:56.367Z,46.00
2023-02-18T09:16:03.458Z,46.04
2023-02-18T09:19:06.524Z,46.09
2023-02-18T09:22:09.550Z,46.04
2023-02-18T09:25:12.460Z,46.24
2023-02-18T09:28:15.382Z,46.23
2023-02-18T09:31:21.605Z,46.28
2023-02-18T09:34:24.524Z,46.29
2023-02-18T09:37:27.409Z,46.32
2023-02-18T09:40:33.355Z,46.49
2023-02-18T09:43:41.653Z,46.58
2023-02-18T09:46:51.453Z,46.42
2023-02-18T09:49:57.799Z,46.65
2023-02-18T09:53:01.738Z,46.79
2023-02-18T09:56:04.928Z,46.89
2023-02-18T09:59:14.403Z,46.86
2023-02-18T10:02:20.937Z,46.82
2023-02-18T10:05:25.559Z,46.92
2023-02-18T10:08:30.613Z,47.00
2023-02-18T10:11:38.958Z,47.02
2023-02-18T10:14:42.281Z,47.00
2023-02-18T10:17:47.977Z,47.11
2023-02-18T10:20:52.882Z,46.98
2023-02-18T10:24:00.770Z,47.21
2023-02-18T10:27:06.645Z,47.05
2023-02-18T10:30:23.820Z,47.09
2023-02-18T10:33:36.662Z,46.97
2023-02-18T10:36:46.257Z,46.97
2023-02-18T10:40:04.562Z,47.00
2023-02-18T10:43:13.899Z,47.09
2023-02-18T10:46:25.615Z,46.99
2023-02-18T10:49:48.339Z,47.09
2023-02-18T10:52:53.716Z,47.11
2023-02-18T10:55:56.859Z,47.07
2023-02-18T10:59:06.759Z,47.08
2023-02-18T11:02:19.005Z,47.01
2023-02-18T11:05:26.805Z,47.10
2023-02-18T11:08:40.280Z,47.08
2023-02-18T11:11:45.706Z,47.11
2023-02-18T11:15:04.596Z,47.21
2023-02-18T11:18:23.618Z,47.10
2023-02-18T11:21:37.742Z,47.05
2023-02-18T11:24:40.962Z,47.08
2023-02-18T11:27:47.393Z,47.13
2023-02-18T11:30:55.196Z,47.20
2023-02-18T11:34:00.931Z,47.00
2023-02-18T11:37:13.180Z,47.09
2023-02-18T11:40:24.149Z,46.96
2023-02-18T11:43:31.800Z,46.96
2023-02-18T11:46:35.147Z,46.94
2023-02-18T11:49:38.047Z,46.95
2023-02-18T11:52:43.688Z,46.89
2023-02-18T11:55:56.343Z,46.92
2023-02-18T11:59:00.027Z,46.89
2023-02-18T12:02:23.443Z,46.95
2023-02-18T12:05:28.758Z,46.84
2023-02-18T12:08:39.999Z,46.97
2023-02-18T12:11:47.403Z,46.90
2023-02-18T12:14:52.996Z,46.85
2023-02-18T12:18:22.610Z,46.97
2023-02-18T12:21:45.431Z,46.96
2023-02-18T12:25:03.239Z,46.96
2023-02-18T12:28:23.548Z,47.20
2023-02-18T12:31:45.943Z,47.04
2023-02-18T12:35:04.424Z,47.04
2023-02-18T12:38:38.473Z,47.11
2023-02-18T12:42:14.782Z,47.29
2023-02-18T12:45:38.108Z,47.36
2023-02-18T12:48:54.568Z,47.33
2023-02-18T12:52:13.427Z,47.23
2023-02-18T12:55:32.036Z,47.18
2023-02-18T12:58:48.122Z,47.12
2023-02-18T13:02:03.322Z,47.22
2023-02-18T13:05:13.467Z,47.12
2023-02-18T13:08:32.403Z,47.10
2023-02-18T13:11:45.215Z,47.07
2023-02-18T13:14:57.205Z,47.15
2023-02-18T13:18:04.468Z,47.18
2023-02-18T13:21:09.688Z,47.07
2023-02-18T13:24:15.739Z,47.12
2023-02-18T13:27:27.309Z,47.05
2023-02-18T13:30:39.682Z,47.02
2023-02-18T13:33:48.292Z,47.15
2023-02-18T13:37:03.045Z,47.12
2023-02-18T13:40:15.112Z,47.13
2023-02-18T13:43:21.068Z,47.18
2023-02-18T13:46:26.093Z,47.29
2023-02-18T13:49:35.429Z,47.27
2023-02-18T13:52:38.351Z,47.40
2023-02-18T13:55:47.014Z,47.32
2023-02-18T13:58:52.570Z,47.26
2023-02-18T14:01:56.886Z,47.27
2023-02-18T14:05:20.821Z,47.33
2023-02-18T14:08:33.013Z,47.37
2023-02-18T14:11:41.954Z,47.54
2023-02-18T14:14:45.251Z,47.64
2023-02-18T14:17:51.620Z,47.61
2023-02-18T14:21:06.446Z,47.48
2023-02-18T14:24:12.836Z,47.67
2023-02-18T14:27:17.606Z,47.67
2023-02-18T14:30:28.427Z,47.66
2023-02-18T14:33:35.560Z,47.57
2023-02-18T14:36:47.614Z,47.79
2023-02-18T14:40:04.431Z,47.67
2023-02-18T14:43:13.919Z,47.66
2023-02-18T14:46:27.473Z,47.69
2023-02-18T14:49:45.714Z,47.90
2023-02-18T14:52:51.506Z,47.80
2023-02-18T14:55:59.407Z,47.88
2023-02-18T14:59:04.212Z,48.15
2023-02-18T15:02:19.434Z,48.04
2023-02-18T15:05:26.074Z,48.22
2023-02-18T15:08:39.701Z,48.14
2023-02-18T15:11:46.937Z,48.38
2023-02-18T15:14:52.191Z,48.24
2023-02-18T15:17:56.206Z,48.30
2023-02-18T15:21:02.063Z,48.30
2023-02-18T15:24:09.863Z,48.38
2023-02-18T15:27:15.571Z,48.18
2023-02-18T15:30:22.768Z,48.43
2023-02-18T15:33:26.132Z,48.18
2023-02-18T15:36:30.444Z,48.09
2023-02-18T15:39:34.051Z,48.12
2023-02-18T15:42:44.999Z,48.42
2023-02-18T15:45:51.032Z,48.75
2023-02-18T15:48:55.464Z,48.98
2023-02-18T15:52:03.255Z,49.09
2023-02-18T15:55:13.711Z,49.28
2023-02-18T15:58:19.720Z,49.11
2023-02-18T16:01:29.096Z,49.03
2023-02-18T16:04:35.160Z,48.99
2023-02-18T16:07:52.066Z,49.03
2023-02-18T16:10:57.545Z,48.87
2023-02-18T16:14:00.506Z,48.91
2023-02-18T16:17:10.871Z,48.98
2023-02-18T16:20:24.583Z,48.96
2023-02-18T16:23:36.288Z,48.95
2023-02-18T16:26:44.688Z,48.86
2023-02-18T16:29:52.132Z,48.79
2023-02-18T16:32:55.129Z,48.73
2023-02-18T16:35:58.004Z,48.73
2023-02-18T16:39:03.354Z,48.80
2023-02-18T16:42:09.785Z,48.96
2023-02-18T16:45:13.603Z,48.58
2023-02-18T16:48:20.606Z,48.69
2023-02-18T16:51:27.629Z,48.59
2023-02-18T16:54:31.894Z,48.62
2023-02-18T16:57:34.830Z,48.86
2023-02-18T17:00:38.471Z,48.76
2023-02-18T17:03:41.449Z,48.98
2023-02-18T17:06:45.205Z,49.02
2023-02-18T17:09:49.440Z,49.03
2023-02-18T17:12:52.404Z,48.92
2023-02-18T17:15:58.385Z,48.99
2023-02-18T17:19:01.288Z,48.98
2023-02-18T17:22:04.240Z,49.05
2023-02-18T17:25:14.059Z,48.92
2023-02-18T17:28:19.185Z,48.93
2023-02-18T17:31:26.085Z,48.87
2023-02-18T17:34:32.658Z,49.04
2023-02-18T17:37:35.668Z,49.07
2023-02-18T17:40:40.252Z,48.97
2023-02-18T17:43:43.546Z,48.97
2023-02-18T17:46:46.722Z,48.97
2023-02-18T17:49:49.511Z,48.98
2023-02-18T17:52:52.551Z,48.86
2023-02-18T17:55:56.776Z,48.79
2023-02-18T17:58:59.695Z,48.71
2023-02-18T18:02:02.546Z,48.62
2023-02-18T18:05:05.763Z,48.59
2023-02-18T18:08:09.892Z,48.48
2023-02-18T18:11:17.161Z,48.62
2023-02-18T18:14:20.006Z,48.65
2023-02-18T18:17:22.853Z,48.72
2023-02-18T18:20:27.579Z,48.65
2023-02-18T18:23:30.480Z,48.51
2023-02-18T18:26:34.705Z,48.44
2023-02-18T18:29:37.510Z,48.68
2023-02-18T18:32:40.402Z,48.46
2023-02-18T18:35:45.859Z,48.45
2023-02-18T18:38:48.844Z,48.45
2023-02-18T18:41:53.600Z,48.45
2023-02-18T18:44:56.510Z,48.31
2023-02-18T18:47:59.582Z,48.27
2023-02-18T18:51:02.493Z,48.32
2023-02-18T18:54:05.830Z,48.18
2023-02-18T18:57:10.043Z,48.22
2023-02-18T19:00:14.234Z,48.20
2023-02-18T19:03:17.900Z,48.08
2023-02-18T19:06:22.014Z,48.06
2023-02-18T19:09:25.070Z,48.13
2023-02-18T19:12:29.327Z,48.13
2023-02-18T19:15:32.716Z,47.96
2023-02-18T19:18:36.049Z,47.98
2023-02-18T19:21:40.043Z,47.99
2023-02-18T19:24:42.918Z,47.91
2023-02-18T19:27:48.886Z,47.89
2023-02-18T19:30:51.900Z,48.02
2023-02-18T19:33:55.562Z,48.02
2023-02-18T19:36:58.481Z,48.05
2023-02-18T19:40:01.531Z,47.85
2023-02-18T19:43:06.667Z,48.05
2023-02-18T19:46:10.279Z,48.02
2023-02-18T19:49:13.237Z,47.96
2023-02-18T19:52:16.094Z,47.98
2023-02-18T19:55:19.138Z,47.88
2023-02-18T19:58:23.390Z,47.87
2023-02-18T20:01:26.751Z,47.92
2023-02-18T20:04:29.933Z,47.94
2023-02-18T20:07:32.849Z,47.92
2023-02-18T20:10:36.123Z,47.83
2023-02-18T20:13:40.381Z,47.88
2023-02-18T20:16:43.239Z,47.89
2023-02-18T20:19:46.236Z,47.87
2023-02-18T20:22:49.087Z,47.93
2023-02-18T20:25:52.052Z,47.92
2023-02-18T20:28:56.579Z,47.89
2023-02-18T20:31:59.478Z,47.86
2023-02-18T20:35:02.351Z,47.82
2023-02-18T20:38:05.238Z,47.80
2023-02-18T20:41:09.647Z,47.89
2023-02-18T20:44:15.929Z,47.90
2023-02-18T20:47:19.268Z,47.90
2023-02-18T20:50:22.213Z,47.86
2023-02-18T20:53:25.067Z,47.90
2023-02-18T20:56:27.871Z,47.97
2023-02-18T20:59:33.390Z,47.81
2023-02-18T21:02:36.453Z,47.82
2023-02-18T21:05:39.277Z,47.89
2023-02-18T21:08:43.301Z,48.02
2023-02-18T21:11:46.878Z,47.93
2023-02-18T21:14:51.114Z,47.90
2023-02-18T21:17:53.894Z,47.97
2023-02-18T21:20:56.762Z,47.82
2023-02-18T21:23:59.655Z,47.92
2023-02-18T21:27:02.554Z,47.86
2023-02-18T21:30:09.176Z,47.92
2023-02-18T21:33:12.833Z,47.70
2023-02-18T21:36:16.207Z,47.86
2023-02-18T21:39:19.250Z,47.74
2023-02-18T21:42:22.296Z,47.75
2023-02-18T21:45:27.526Z,47.77
2023-02-18T21:48:48.243Z,47.94
2023-02-18T21:52:08.141Z,47.81
2023-02-18T21:55:11.530Z,47.63
2023-02-18T21:58:14.689Z,47.70
2023-02-18T22:01:18.988Z,47.75
2023-02-18T22:04:22.379Z,47.67
2023-02-18T22:07:27.344Z,47.72
2023-02-18T22:10:30.286Z,47.72
2023-02-18T22:13:33.213Z,47.68
2023-02-18T22:16:37.688Z,47.75
2023-02-18T22:19:41.032Z,47.83
2023-02-18T22:22:43.842Z,47.75
2023-02-18T22:25:47.937Z,47.76
2023-02-18T22:28:54.505Z,47.73
2023-02-18T22:31:58.697Z,47.71
2023-02-18T22:35:02.111Z,47.66
2023-02-18T22:38:05.022Z,47.61
2023-02-18T22:41:10.251Z,47.69
2023-02-18T22:44:15.521Z,47.74
2023-02-18T22:47:19.947Z,47.62
2023-02-18T22:50:22.774Z,47.65
2023-02-18T22:53:25.728Z,47.67
2023-02-18T22:56:30.218Z,47.70
2023-02-18T22:59:33.142Z,47.62
2023-02-18T23:02:37.425Z,47.70
2023-02-18T23:05:40.276Z,47.71
2023-02-18T23:08:43.372Z,47.68
2023-02-18T23:11:46.444Z,47.66
2023-02-18T23:14:49.293Z,47.78
2023-02-18T23:17:53.440Z,47.58
2023-02-18T23:21:21.332Z,47.63
2023-02-18T23:24:24.309Z,47.65
2023-02-18T23:27:28.002Z,47.61
2023-02-18T23:30:31.004Z,47.72
2023-02-18T23:33:35.296Z,47.58
2023-02-18T23:36:38.207Z,47.59
2023-02-18T23:39:41.426Z,47.61
2023-02-18T23:42:44.461Z,47.72
2023-02-18T23:45:47.347Z,47.64
2023-02-18T23:48:51.892Z,47.62
2023-02-18T23:51:56.744Z,47.68
2023-02-18T23:54:59.720Z,47.76
2023-02-18T23:58:02.579Z,47.67
